sensor_id;sensor_type;location;lat;lon;timestamp;temperature;humidity
31747;DHT22;18319;48.974;8.462;2022-10-17T00:00:10;14.30;99.90
31747;DHT22;18319;48.974;8.462;2022-10-17T00:02:37;14.30;99.90
31747;DHT22;18319;48.974;8.462;2022-10-17T00:05:04;14.20;99.90
31747;DHT22;18319;48.974;8.462;2022-10-17T00:07:31;14.20;99.90
31747;DHT22;18319;48.974;8.462;2022-10-17T00:09:58;14.20;99.90
31747;DHT22;18319;48.974;8.462;2022-10-17T00:12:24;14.20;99.90
31747;DHT22;18319;48.974;8.462;2022-10-17T00:14:51;14.20;99.90
31747;DHT22;18319;48.974;8.462;2022-10-17T00:17:19;14.10;99.90
31747;DHT22;18319;48.974;8.462;2022-10-17T00:19:46;14.20;99.90
31747;DHT22;18319;48.974;8.462;2022-10-17T00:22:13;14.10;99.90
31747;DHT22;18319;48.974;8.462;2022-10-17T00:24:40;14.10;99.90
31747;DHT22;18319;48.974;8.462;2022-10-17T00:27:07;14.10;99.90
31747;DHT22;18319;48.974;8.462;2022-10-17T00:29:34;14.10;99.90
31747;DHT22;18319;48.974;8.462;2022-10-17T00:32:00;14.00;99.90
31747;DHT22;18319;48.974;8.462;2022-10-17T00:34:29;14.00;99.90
31747;DHT22;18319;48.974;8.462;2022-10-17T00:36:56;14.00;99.90
31747;DHT22;18319;48.974;8.462;2022-10-17T00:39:23;14.00;99.90
31747;DHT22;18319;48.974;8.462;2022-10-17T00:41:50;14.00;99.90
31747;DHT22;18319;48.974;8.462;2022-10-17T00:47:21;13.90;99.90
31747;DHT22;18319;48.974;8.462;2022-10-17T00:49:49;13.90;99.90
31747;DHT22;18319;48.974;8.462;2022-10-17T00:52:20;13.90;99.90
31747;DHT22;18319;48.974;8.462;2022-10-17T00:54:50;13.80;99.90
31747;DHT22;18319;48.974;8.462;2022-10-17T00:57:20;13.90;99.90
31747;DHT22;18319;48.974;8.462;2022-10-17T00:59:50;13.80;99.90
31747;DHT22;18319;48.974;8.462;2022-10-17T01:02:19;13.80;99.90
31747;DHT22;18319;48.974;8.462;2022-10-17T01:04:50;13.80;99.90
31747;DHT22;18319;48.974;8.462;2022-10-17T01:07:17;13.80;99.90
31747;DHT22;18319;48.974;8.462;2022-10-17T01:09:45;13.80;99.90
31747;DHT22;18319;48.974;8.462;2022-10-17T01:12:17;13.90;99.90
31747;DHT22;18319;48.974;8.462;2022-10-17T01:14:54;13.80;99.90
31747;DHT22;18319;48.974;8.462;2022-10-17T01:17:28;13.80;99.90
31747;DHT22;18319;48.974;8.462;2022-10-17T01:20:27;13.80;99.90
31747;DHT22;18319;48.974;8.462;2022-10-17T01:23:09;13.90;99.90
31747;DHT22;18319;48.974;8.462;2022-10-17T01:25:52;13.80;99.90
31747;DHT22;18319;48.974;8.462;2022-10-17T01:31:37;13.80;99.90
31747;DHT22;18319;48.974;8.462;2022-10-17T01:34:14;13.70;99.90
31747;DHT22;18319;48.974;8.462;2022-10-17T01:36:48;13.80;99.90
31747;DHT22;18319;48.974;8.462;2022-10-17T01:39:21;13.80;99.90
31747;DHT22;18319;48.974;8.462;2022-10-17T01:41:55;13.70;99.90
31747;DHT22;18319;48.974;8.462;2022-10-17T01:44:28;13.80;99.90
31747;DHT22;18319;48.974;8.462;2022-10-17T01:47:03;13.80;99.90
31747;DHT22;18319;48.974;8.462;2022-10-17T01:49:33;13.80;99.90
31747;DHT22;18319;48.974;8.462;2022-10-17T01:52:05;13.80;99.90
31747;DHT22;18319;48.974;8.462;2022-10-17T01:54:38;13.80;99.90
31747;DHT22;18319;48.974;8.462;2022-10-17T01:57:09;13.70;99.90
31747;DHT22;18319;48.974;8.462;2022-10-17T01:59:39;13.80;99.90
31747;DHT22;18319;48.974;8.462;2022-10-17T02:02:09;13.80;99.90
31747;DHT22;18319;48.974;8.462;2022-10-17T02:04:37;13.70;99.90
31747;DHT22;18319;48.974;8.462;2022-10-17T02:07:07;13.70;99.90
31747;DHT22;18319;48.974;8.462;2022-10-17T02:09:34;13.70;99.90
31747;DHT22;18319;48.974;8.462;2022-10-17T02:12:24;13.80;99.90
31747;DHT22;18319;48.974;8.462;2022-10-17T02:15:02;13.70;99.90
31747;DHT22;18319;48.974;8.462;2022-10-17T02:17:41;13.70;99.90
31747;DHT22;18319;48.974;8.462;2022-10-17T02:20:18;13.70;99.90
31747;DHT22;18319;48.974;8.462;2022-10-17T02:22:50;13.70;99.90
31747;DHT22;18319;48.974;8.462;2022-10-17T02:25:26;13.60;99.90
31747;DHT22;18319;48.974;8.462;2022-10-17T02:27:59;13.60;99.90
31747;DHT22;18319;48.974;8.462;2022-10-17T02:30:32;13.60;99.90
31747;DHT22;18319;48.974;8.462;2022-10-17T02:33:03;13.50;99.90
31747;DHT22;18319;48.974;8.462;2022-10-17T02:35:34;13.00;99.90
31747;DHT22;18319;48.974;8.462;2022-10-17T02:38:04;13.50;99.90
31747;DHT22;18319;48.974;8.462;2022-10-17T02:40:32;13.50;99.90
31747;DHT22;18319;48.974;8.462;2022-10-17T02:42:59;13.40;99.90
31747;DHT22;18319;48.974;8.462;2022-10-17T02:45:27;13.40;99.90
31747;DHT22;18319;48.974;8.462;2022-10-17T02:47:59;13.40;99.90
31747;DHT22;18319;48.974;8.462;2022-10-17T02:50:34;13.40;99.90
31747;DHT22;18319;48.974;8.462;2022-10-17T02:53:08;13.40;99.90
31747;DHT22;18319;48.974;8.462;2022-10-17T02:55:40;13.40;99.90
31747;DHT22;18319;48.974;8.462;2022-10-17T02:58:11;13.40;99.90
31747;DHT22;18319;48.974;8.462;2022-10-17T03:00:41;13.40;99.90
31747;DHT22;18319;48.974;8.462;2022-10-17T03:03:18;13.40;99.90
31747;DHT22;18319;48.974;8.462;2022-10-17T03:05:47;13.40;99.90
31747;DHT22;18319;48.974;8.462;2022-10-17T03:08:14;13.40;99.90
31747;DHT22;18319;48.974;8.462;2022-10-17T03:10:41;13.40;99.90
31747;DHT22;18319;48.974;8.462;2022-10-17T03:13:07;13.30;99.90
31747;DHT22;18319;48.974;8.462;2022-10-17T03:15:34;13.40;99.90
31747;DHT22;18319;48.974;8.462;2022-10-17T03:18:01;13.30;99.90
31747;DHT22;18319;48.974;8.462;2022-10-17T03:20:28;13.40;99.90
31747;DHT22;18319;48.974;8.462;2022-10-17T03:22:56;13.40;99.90
31747;DHT22;18319;48.974;8.462;2022-10-17T03:25:23;13.30;99.90
31747;DHT22;18319;48.974;8.462;2022-10-17T03:27:50;13.30;99.90
31747;DHT22;18319;48.974;8.462;2022-10-17T03:30:17;13.30;99.90
31747;DHT22;18319;48.974;8.462;2022-10-17T03:32:44;13.20;99.90
31747;DHT22;18319;48.974;8.462;2022-10-17T03:35:10;13.10;99.90
31747;DHT22;18319;48.974;8.462;2022-10-17T03:37:37;13.10;99.90
31747;DHT22;18319;48.974;8.462;2022-10-17T03:40:06;13.10;99.90
31747;DHT22;18319;48.974;8.462;2022-10-17T03:42:33;13.10;99.90
31747;DHT22;18319;48.974;8.462;2022-10-17T03:44:59;13.00;99.90
31747;DHT22;18319;48.974;8.462;2022-10-17T03:47:27;13.00;99.90
31747;DHT22;18319;48.974;8.462;2022-10-17T03:49:54;13.00;99.90
31747;DHT22;18319;48.974;8.462;2022-10-17T03:52:20;13.00;99.90
31747;DHT22;18319;48.974;8.462;2022-10-17T03:54:48;13.00;99.90
31747;DHT22;18319;48.974;8.462;2022-10-17T03:57:17;12.90;99.90
31747;DHT22;18319;48.974;8.462;2022-10-17T03:59:44;12.90;99.90
31747;DHT22;18319;48.974;8.462;2022-10-17T04:02:10;13.00;99.90
31747;DHT22;18319;48.974;8.462;2022-10-17T04:04:37;12.90;99.90
31747;DHT22;18319;48.974;8.462;2022-10-17T04:07:04;12.90;99.90
31747;DHT22;18319;48.974;8.462;2022-10-17T04:09:31;13.00;99.90
31747;DHT22;18319;48.974;8.462;2022-10-17T04:11:57;12.90;99.90
31747;DHT22;18319;48.974;8.462;2022-10-17T04:14:26;12.90;99.90
31747;DHT22;18319;48.974;8.462;2022-10-17T04:16:52;12.90;99.90
31747;DHT22;18319;48.974;8.462;2022-10-17T04:19:19;12.90;99.90
31747;DHT22;18319;48.974;8.462;2022-10-17T04:21:46;13.00;99.90
31747;DHT22;18319;48.974;8.462;2022-10-17T04:24:13;13.00;99.90
31747;DHT22;18319;48.974;8.462;2022-10-17T04:26:40;13.00;99.90
31747;DHT22;18319;48.974;8.462;2022-10-17T04:29:06;13.00;99.90
31747;DHT22;18319;48.974;8.462;2022-10-17T04:31:35;13.00;99.90
31747;DHT22;18319;48.974;8.462;2022-10-17T04:34:01;13.00;99.90
31747;DHT22;18319;48.974;8.462;2022-10-17T04:36:28;13.10;99.90
31747;DHT22;18319;48.974;8.462;2022-10-17T04:38:55;13.00;99.90
31747;DHT22;18319;48.974;8.462;2022-10-17T04:41:22;13.00;99.90
31747;DHT22;18319;48.974;8.462;2022-10-17T04:43:48;13.00;99.90
31747;DHT22;18319;48.974;8.462;2022-10-17T04:46:15;13.00;99.90
31747;DHT22;18319;48.974;8.462;2022-10-17T04:48:43;13.00;99.90
31747;DHT22;18319;48.974;8.462;2022-10-17T04:51:12;12.90;99.90
31747;DHT22;18319;48.974;8.462;2022-10-17T04:53:40;12.90;99.90
31747;DHT22;18319;48.974;8.462;2022-10-17T04:56:09;13.00;99.90
31747;DHT22;18319;48.974;8.462;2022-10-17T04:58:36;12.90;99.90
31747;DHT22;18319;48.974;8.462;2022-10-17T05:01:06;13.00;99.90
31747;DHT22;18319;48.974;8.462;2022-10-17T05:03:34;12.90;99.90
31747;DHT22;18319;48.974;8.462;2022-10-17T05:06:06;12.90;99.90
31747;DHT22;18319;48.974;8.462;2022-10-17T05:08:34;12.90;99.90
31747;DHT22;18319;48.974;8.462;2022-10-17T05:11:01;12.90;99.90
31747;DHT22;18319;48.974;8.462;2022-10-17T05:13:28;12.90;99.90
31747;DHT22;18319;48.974;8.462;2022-10-17T05:15:58;12.90;99.90
31747;DHT22;18319;48.974;8.462;2022-10-17T05:18:25;12.90;99.90
31747;DHT22;18319;48.974;8.462;2022-10-17T05:20:52;12.90;99.90
31747;DHT22;18319;48.974;8.462;2022-10-17T05:23:20;12.80;99.90
31747;DHT22;18319;48.974;8.462;2022-10-17T05:25:47;12.90;99.90
31747;DHT22;18319;48.974;8.462;2022-10-17T05:28:13;12.90;99.90
31747;DHT22;18319;48.974;8.462;2022-10-17T05:30:40;12.90;99.90
31747;DHT22;18319;48.974;8.462;2022-10-17T05:33:07;12.80;99.90
31747;DHT22;18319;48.974;8.462;2022-10-17T05:35:34;12.80;99.90
31747;DHT22;18319;48.974;8.462;2022-10-17T05:38:01;12.80;99.90
31747;DHT22;18319;48.974;8.462;2022-10-17T05:40:29;12.80;99.90
31747;DHT22;18319;48.974;8.462;2022-10-17T05:42:56;12.80;99.90
31747;DHT22;18319;48.974;8.462;2022-10-17T05:45:23;12.80;99.90
31747;DHT22;18319;48.974;8.462;2022-10-17T05:47:49;12.80;99.90
31747;DHT22;18319;48.974;8.462;2022-10-17T05:50:16;12.80;99.90
31747;DHT22;18319;48.974;8.462;2022-10-17T05:52:45;12.90;99.90
31747;DHT22;18319;48.974;8.462;2022-10-17T05:55:12;12.80;99.90
31747;DHT22;18319;48.974;8.462;2022-10-17T05:57:40;12.80;99.90
31747;DHT22;18319;48.974;8.462;2022-10-17T06:00:08;12.90;99.90
31747;DHT22;18319;48.974;8.462;2022-10-17T06:02:35;12.90;99.90
31747;DHT22;18319;48.974;8.462;2022-10-17T06:05:01;12.90;99.90
31747;DHT22;18319;48.974;8.462;2022-10-17T06:07:28;12.90;99.90
31747;DHT22;18319;48.974;8.462;2022-10-17T06:09:55;12.90;99.90
31747;DHT22;18319;48.974;8.462;2022-10-17T06:12:23;12.80;99.90
31747;DHT22;18319;48.974;8.462;2022-10-17T06:14:51;12.80;99.90
31747;DHT22;18319;48.974;8.462;2022-10-17T06:17:18;12.80;99.90
31747;DHT22;18319;48.974;8.462;2022-10-17T06:19:45;12.90;99.90
31747;DHT22;18319;48.974;8.462;2022-10-17T06:22:12;12.90;99.90
31747;DHT22;18319;48.974;8.462;2022-10-17T06:24:40;12.90;99.90
31747;DHT22;18319;48.974;8.462;2022-10-17T06:27:06;13.00;99.90
31747;DHT22;18319;48.974;8.462;2022-10-17T06:29:33;13.10;99.90
31747;DHT22;18319;48.974;8.462;2022-10-17T06:32:02;13.10;99.90
31747;DHT22;18319;48.974;8.462;2022-10-17T06:34:28;13.20;99.90
31747;DHT22;18319;48.974;8.462;2022-10-17T06:36:55;13.30;99.90
31747;DHT22;18319;48.974;8.462;2022-10-17T06:39:22;13.30;99.90
31747;DHT22;18319;48.974;8.462;2022-10-17T06:41:51;13.30;99.90
31747;DHT22;18319;48.974;8.462;2022-10-17T06:44:18;13.40;99.90
31747;DHT22;18319;48.974;8.462;2022-10-17T06:46:46;13.40;99.90
31747;DHT22;18319;48.974;8.462;2022-10-17T06:49:14;13.60;99.90
31747;DHT22;18319;48.974;8.462;2022-10-17T06:51:41;13.70;99.90
31747;DHT22;18319;48.974;8.462;2022-10-17T06:54:08;13.70;99.90
31747;DHT22;18319;48.974;8.462;2022-10-17T06:56:34;13.90;99.90
31747;DHT22;18319;48.974;8.462;2022-10-17T06:59:01;14.00;99.90
31747;DHT22;18319;48.974;8.462;2022-10-17T07:01:30;14.10;99.90
31747;DHT22;18319;48.974;8.462;2022-10-17T07:03:57;14.10;99.90
31747;DHT22;18319;48.974;8.462;2022-10-17T07:06:25;14.20;99.90
31747;DHT22;18319;48.974;8.462;2022-10-17T07:08:52;14.30;99.90
31747;DHT22;18319;48.974;8.462;2022-10-17T07:11:20;14.30;99.90
31747;DHT22;18319;48.974;8.462;2022-10-17T07:13:48;14.50;99.90
31747;DHT22;18319;48.974;8.462;2022-10-17T07:16:15;14.50;99.90
31747;DHT22;18319;48.974;8.462;2022-10-17T07:18:42;14.60;99.90
31747;DHT22;18319;48.974;8.462;2022-10-17T07:21:11;14.60;99.90
31747;DHT22;18319;48.974;8.462;2022-10-17T07:23:39;14.70;99.90
31747;DHT22;18319;48.974;8.462;2022-10-17T07:26:11;14.70;99.90
31747;DHT22;18319;48.974;8.462;2022-10-17T07:28:40;14.70;99.90
31747;DHT22;18319;48.974;8.462;2022-10-17T07:31:09;14.70;99.90
31747;DHT22;18319;48.974;8.462;2022-10-17T07:33:36;14.70;99.90
31747;DHT22;18319;48.974;8.462;2022-10-17T07:36:04;14.70;99.90
31747;DHT22;18319;48.974;8.462;2022-10-17T07:38:31;14.70;99.90
31747;DHT22;18319;48.974;8.462;2022-10-17T07:41:01;14.80;99.90
31747;DHT22;18319;48.974;8.462;2022-10-17T07:43:29;14.90;99.90
31747;DHT22;18319;48.974;8.462;2022-10-17T07:45:55;14.90;99.90
31747;DHT22;18319;48.974;8.462;2022-10-17T07:48:23;14.90;99.90
31747;DHT22;18319;48.974;8.462;2022-10-17T07:50:50;14.90;99.90
31747;DHT22;18319;48.974;8.462;2022-10-17T07:53:17;15.00;99.90
31747;DHT22;18319;48.974;8.462;2022-10-17T07:55:44;15.20;99.90
31747;DHT22;18319;48.974;8.462;2022-10-17T07:58:14;15.20;99.90
31747;DHT22;18319;48.974;8.462;2022-10-17T08:00:41;15.20;99.90
31747;DHT22;18319;48.974;8.462;2022-10-17T08:03:09;15.40;99.90
31747;DHT22;18319;48.974;8.462;2022-10-17T08:05:36;15.40;99.90
31747;DHT22;18319;48.974;8.462;2022-10-17T08:08:03;15.50;99.90
31747;DHT22;18319;48.974;8.462;2022-10-17T08:10:30;15.50;99.90
31747;DHT22;18319;48.974;8.462;2022-10-17T08:12:57;15.60;99.90
31747;DHT22;18319;48.974;8.462;2022-10-17T08:15:25;15.70;99.90
31747;DHT22;18319;48.974;8.462;2022-10-17T08:17:52;15.80;99.90
31747;DHT22;18319;48.974;8.462;2022-10-17T08:20:20;15.90;99.90
31747;DHT22;18319;48.974;8.462;2022-10-17T08:22:50;16.00;99.90
31747;DHT22;18319;48.974;8.462;2022-10-17T08:25:17;16.00;99.90
31747;DHT22;18319;48.974;8.462;2022-10-17T08:27:44;16.00;99.90
31747;DHT22;18319;48.974;8.462;2022-10-17T08:30:11;16.00;99.90
31747;DHT22;18319;48.974;8.462;2022-10-17T08:32:39;16.00;99.90
31747;DHT22;18319;48.974;8.462;2022-10-17T08:35:07;15.90;99.90
31747;DHT22;18319;48.974;8.462;2022-10-17T08:37:34;16.00;99.90
31747;DHT22;18319;48.974;8.462;2022-10-17T08:40:01;16.00;99.90
31747;DHT22;18319;48.974;8.462;2022-10-17T08:45:29;16.20;99.90
31747;DHT22;18319;48.974;8.462;2022-10-17T08:48:01;16.10;99.90
31747;DHT22;18319;48.974;8.462;2022-10-17T08:50:33;16.30;99.90
31747;DHT22;18319;48.974;8.462;2022-10-17T08:53:03;16.30;99.90
31747;DHT22;18319;48.974;8.462;2022-10-17T08:55:35;16.40;99.90
31747;DHT22;18319;48.974;8.462;2022-10-17T08:58:02;16.50;99.90
31747;DHT22;18319;48.974;8.462;2022-10-17T09:00:31;16.60;99.90
31747;DHT22;18319;48.974;8.462;2022-10-17T09:03:12;16.50;99.90
31747;DHT22;18319;48.974;8.462;2022-10-17T09:05:47;16.70;99.90
31747;DHT22;18319;48.974;8.462;2022-10-17T09:08:24;16.70;99.90
31747;DHT22;18319;48.974;8.462;2022-10-17T09:10:58;16.80;99.90
31747;DHT22;18319;48.974;8.462;2022-10-17T09:13:40;16.90;99.90
31747;DHT22;18319;48.974;8.462;2022-10-17T09:16:30;17.00;99.90
31747;DHT22;18319;48.974;8.462;2022-10-17T09:19:08;17.00;99.90
31747;DHT22;18319;48.974;8.462;2022-10-17T09:21:41;17.10;99.90
31747;DHT22;18319;48.974;8.462;2022-10-17T09:24:14;17.20;99.90
31747;DHT22;18319;48.974;8.462;2022-10-17T09:26:43;17.20;99.90
31747;DHT22;18319;48.974;8.462;2022-10-17T09:29:17;17.60;99.90
31747;DHT22;18319;48.974;8.462;2022-10-17T09:31:51;17.50;99.90
31747;DHT22;18319;48.974;8.462;2022-10-17T09:34:22;17.50;99.90
31747;DHT22;18319;48.974;8.462;2022-10-17T09:36:50;17.60;99.90
31747;DHT22;18319;48.974;8.462;2022-10-17T09:39:19;17.70;99.90
31747;DHT22;18319;48.974;8.462;2022-10-17T09:41:49;17.60;99.90
31747;DHT22;18319;48.974;8.462;2022-10-17T09:44:20;17.60;99.90
31747;DHT22;18319;48.974;8.462;2022-10-17T09:49:45;17.70;99.90
31747;DHT22;18319;48.974;8.462;2022-10-17T09:52:15;17.80;99.90
31747;DHT22;18319;48.974;8.462;2022-10-17T09:54:44;17.70;99.90
31747;DHT22;18319;48.974;8.462;2022-10-17T09:57:13;17.80;99.90
31747;DHT22;18319;48.974;8.462;2022-10-17T09:59:41;17.90;99.90
31747;DHT22;18319;48.974;8.462;2022-10-17T10:02:20;17.80;99.90
31747;DHT22;18319;48.974;8.462;2022-10-17T10:04:58;18.00;99.90
31747;DHT22;18319;48.974;8.462;2022-10-17T10:07:26;17.90;99.90
31747;DHT22;18319;48.974;8.462;2022-10-17T10:09:54;18.00;99.90
31747;DHT22;18319;48.974;8.462;2022-10-17T10:12:23;18.00;99.90
31747;DHT22;18319;48.974;8.462;2022-10-17T10:14:50;18.00;99.90
31747;DHT22;18319;48.974;8.462;2022-10-17T10:17:32;18.00;99.90
31747;DHT22;18319;48.974;8.462;2022-10-17T10:20:03;18.20;99.90
31747;DHT22;18319;48.974;8.462;2022-10-17T10:22:30;18.20;99.90
31747;DHT22;18319;48.974;8.462;2022-10-17T10:25:07;18.30;99.90
31747;DHT22;18319;48.974;8.462;2022-10-17T10:27:34;18.40;99.90
31747;DHT22;18319;48.974;8.462;2022-10-17T10:30:02;18.40;99.90
31747;DHT22;18319;48.974;8.462;2022-10-17T10:32:31;18.40;99.90
31747;DHT22;18319;48.974;8.462;2022-10-17T10:35:05;18.50;99.90
31747;DHT22;18319;48.974;8.462;2022-10-17T10:37:36;18.50;99.90
31747;DHT22;18319;48.974;8.462;2022-10-17T10:40:05;18.60;99.90
31747;DHT22;18319;48.974;8.462;2022-10-17T10:42:34;18.70;99.90
31747;DHT22;18319;48.974;8.462;2022-10-17T10:45:14;18.60;99.90
31747;DHT22;18319;48.974;8.462;2022-10-17T10:47:49;18.60;99.90
31747;DHT22;18319;48.974;8.462;2022-10-17T10:50:24;18.60;99.90
31747;DHT22;18319;48.974;8.462;2022-10-17T10:52:58;18.60;99.90
31747;DHT22;18319;48.974;8.462;2022-10-17T10:55:31;18.70;99.90
31747;DHT22;18319;48.974;8.462;2022-10-17T10:58:03;18.70;99.90
31747;DHT22;18319;48.974;8.462;2022-10-17T11:00:33;18.70;99.90
31747;DHT22;18319;48.974;8.462;2022-10-17T11:03:08;18.80;99.90
31747;DHT22;18319;48.974;8.462;2022-10-17T11:05:43;19.00;99.90
31747;DHT22;18319;48.974;8.462;2022-10-17T11:08:18;18.90;99.90
31747;DHT22;18319;48.974;8.462;2022-10-17T11:11:02;18.90;99.90
31747;DHT22;18319;48.974;8.462;2022-10-17T11:13:32;19.10;99.90
31747;DHT22;18319;48.974;8.462;2022-10-17T11:16:17;19.10;99.90
31747;DHT22;18319;48.974;8.462;2022-10-17T11:18:50;19.20;99.90
31747;DHT22;18319;48.974;8.462;2022-10-17T11:21:25;19.50;99.90
31747;DHT22;18319;48.974;8.462;2022-10-17T11:23:58;19.40;99.90
31747;DHT22;18319;48.974;8.462;2022-10-17T11:26:28;19.40;99.90
31747;DHT22;18319;48.974;8.462;2022-10-17T11:28:57;19.60;99.90
31747;DHT22;18319;48.974;8.462;2022-10-17T11:31:26;19.50;99.90
31747;DHT22;18319;48.974;8.462;2022-10-17T11:33:58;19.60;99.90
31747;DHT22;18319;48.974;8.462;2022-10-17T11:36:30;19.60;99.90
31747;DHT22;18319;48.974;8.462;2022-10-17T11:39:04;19.70;99.90
31747;DHT22;18319;48.974;8.462;2022-10-17T11:41:35;19.80;99.90
31747;DHT22;18319;48.974;8.462;2022-10-17T11:44:07;19.80;99.90
31747;DHT22;18319;48.974;8.462;2022-10-17T11:46:39;19.80;99.90
31747;DHT22;18319;48.974;8.462;2022-10-17T11:49:11;19.90;99.90
31747;DHT22;18319;48.974;8.462;2022-10-17T11:51:44;19.90;99.90
31747;DHT22;18319;48.974;8.462;2022-10-17T11:54:14;20.00;99.90
31747;DHT22;18319;48.974;8.462;2022-10-17T11:56:47;20.10;99.90
31747;DHT22;18319;48.974;8.462;2022-10-17T11:59:43;20.10;99.90
31747;DHT22;18319;48.974;8.462;2022-10-17T12:02:18;20.20;99.90
31747;DHT22;18319;48.974;8.462;2022-10-17T12:04:53;20.30;99.90
31747;DHT22;18319;48.974;8.462;2022-10-17T12:07:29;20.40;99.90
31747;DHT22;18319;48.974;8.462;2022-10-17T12:10:06;20.40;99.90
31747;DHT22;18319;48.974;8.462;2022-10-17T12:12:39;20.40;99.90
31747;DHT22;18319;48.974;8.462;2022-10-17T12:15:27;20.60;99.90
31747;DHT22;18319;48.974;8.462;2022-10-17T12:17:55;20.70;99.90
31747;DHT22;18319;48.974;8.462;2022-10-17T12:20:28;20.70;99.90
31747;DHT22;18319;48.974;8.462;2022-10-17T12:23:13;20.80;99.90
31747;DHT22;18319;48.974;8.462;2022-10-17T12:25:48;20.80;99.90
31747;DHT22;18319;48.974;8.462;2022-10-17T12:28:18;20.90;99.90
31747;DHT22;18319;48.974;8.462;2022-10-17T12:30:52;21.00;99.90
31747;DHT22;18319;48.974;8.462;2022-10-17T12:33:20;21.10;99.90
31747;DHT22;18319;48.974;8.462;2022-10-17T12:35:49;21.00;99.90
31747;DHT22;18319;48.974;8.462;2022-10-17T12:38:23;21.00;99.90
31747;DHT22;18319;48.974;8.462;2022-10-17T12:41:00;21.20;99.90
31747;DHT22;18319;48.974;8.462;2022-10-17T12:43:46;21.10;99.90
31747;DHT22;18319;48.974;8.462;2022-10-17T12:46:42;21.20;99.90
31747;DHT22;18319;48.974;8.462;2022-10-17T12:49:37;21.30;99.90
31747;DHT22;18319;48.974;8.462;2022-10-17T12:52:13;21.30;99.90
31747;DHT22;18319;48.974;8.462;2022-10-17T12:54:44;21.20;99.90
31747;DHT22;18319;48.974;8.462;2022-10-17T12:57:19;21.30;99.90
31747;DHT22;18319;48.974;8.462;2022-10-17T12:59:47;21.30;99.90
31747;DHT22;18319;48.974;8.462;2022-10-17T13:02:18;21.20;99.90
31747;DHT22;18319;48.974;8.462;2022-10-17T13:04:46;21.20;99.90
31747;DHT22;18319;48.974;8.462;2022-10-17T13:07:17;21.30;99.90
31747;DHT22;18319;48.974;8.462;2022-10-17T13:09:47;21.20;99.90
31747;DHT22;18319;48.974;8.462;2022-10-17T13:12:19;21.30;99.90
31747;DHT22;18319;48.974;8.462;2022-10-17T13:14:49;21.30;99.90
31747;DHT22;18319;48.974;8.462;2022-10-17T13:17:22;21.40;99.90
31747;DHT22;18319;48.974;8.462;2022-10-17T13:19:50;21.30;99.90
31747;DHT22;18319;48.974;8.462;2022-10-17T13:22:19;21.20;99.90
31747;DHT22;18319;48.974;8.462;2022-10-17T13:24:48;21.20;99.90
31747;DHT22;18319;48.974;8.462;2022-10-17T13:27:27;21.20;99.90
31747;DHT22;18319;48.974;8.462;2022-10-17T13:29:56;21.20;99.90
31747;DHT22;18319;48.974;8.462;2022-10-17T13:32:25;21.40;99.90
31747;DHT22;18319;48.974;8.462;2022-10-17T13:35:07;21.20;99.90
31747;DHT22;18319;48.974;8.462;2022-10-17T13:37:35;21.40;99.90
31747;DHT22;18319;48.974;8.462;2022-10-17T13:40:04;21.30;99.90
31747;DHT22;18319;48.974;8.462;2022-10-17T13:42:37;21.30;99.90
31747;DHT22;18319;48.974;8.462;2022-10-17T13:45:15;21.30;99.90
31747;DHT22;18319;48.974;8.462;2022-10-17T13:47:42;21.30;99.90
31747;DHT22;18319;48.974;8.462;2022-10-17T13:50:19;21.30;99.90
31747;DHT22;18319;48.974;8.462;2022-10-17T13:52:46;21.20;99.90
31747;DHT22;18319;48.974;8.462;2022-10-17T13:55:15;21.20;99.90
31747;DHT22;18319;48.974;8.462;2022-10-17T13:57:44;21.20;99.90
31747;DHT22;18319;48.974;8.462;2022-10-17T14:00:18;21.30;99.90
31747;DHT22;18319;48.974;8.462;2022-10-17T14:02:45;21.10;99.90
31747;DHT22;18319;48.974;8.462;2022-10-17T14:05:14;21.10;99.90
31747;DHT22;18319;48.974;8.462;2022-10-17T14:07:44;21.00;99.90
31747;DHT22;18319;48.974;8.462;2022-10-17T14:10:22;21.00;99.90
31747;DHT22;18319;48.974;8.462;2022-10-17T14:12:50;21.00;99.90
31747;DHT22;18319;48.974;8.462;2022-10-17T14:15:17;21.00;99.90
31747;DHT22;18319;48.974;8.462;2022-10-17T14:17:45;20.90;99.90
31747;DHT22;18319;48.974;8.462;2022-10-17T14:20:18;20.90;99.90
31747;DHT22;18319;48.974;8.462;2022-10-17T14:22:46;21.00;99.90
31747;DHT22;18319;48.974;8.462;2022-10-17T14:25:28;20.90;99.90
31747;DHT22;18319;48.974;8.462;2022-10-17T14:28:00;20.80;99.90
31747;DHT22;18319;48.974;8.462;2022-10-17T14:30:34;20.80;99.90
31747;DHT22;18319;48.974;8.462;2022-10-17T14:33:05;20.80;99.90
31747;DHT22;18319;48.974;8.462;2022-10-17T14:35:33;20.60;99.90
31747;DHT22;18319;48.974;8.462;2022-10-17T14:38:02;20.60;99.90
31747;DHT22;18319;48.974;8.462;2022-10-17T14:40:32;20.70;99.90
31747;DHT22;18319;48.974;8.462;2022-10-17T14:43:02;20.50;99.90
31747;DHT22;18319;48.974;8.462;2022-10-17T14:45:31;20.50;99.90
31747;DHT22;18319;48.974;8.462;2022-10-17T14:48:02;20.40;99.90
31747;DHT22;18319;48.974;8.462;2022-10-17T14:50:30;20.30;99.90
31747;DHT22;18319;48.974;8.462;2022-10-17T14:52:59;20.30;99.90
31747;DHT22;18319;48.974;8.462;2022-10-17T14:55:28;20.20;99.90
31747;DHT22;18319;48.974;8.462;2022-10-17T14:57:57;20.10;99.90
31747;DHT22;18319;48.974;8.462;2022-10-17T15:00:24;20.20;99.90
31747;DHT22;18319;48.974;8.462;2022-10-17T15:02:53;20.00;99.90
31747;DHT22;18319;48.974;8.462;2022-10-17T15:05:20;20.10;99.90
31747;DHT22;18319;48.974;8.462;2022-10-17T15:07:50;19.90;99.90
31747;DHT22;18319;48.974;8.462;2022-10-17T15:10:30;19.90;99.90
31747;DHT22;18319;48.974;8.462;2022-10-17T15:12:59;19.80;99.90
31747;DHT22;18319;48.974;8.462;2022-10-17T15:15:26;19.80;99.90
31747;DHT22;18319;48.974;8.462;2022-10-17T15:17:53;19.70;99.90
31747;DHT22;18319;48.974;8.462;2022-10-17T15:20:20;19.70;99.90
31747;DHT22;18319;48.974;8.462;2022-10-17T15:22:50;19.60;99.90
31747;DHT22;18319;48.974;8.462;2022-10-17T15:25:17;19.60;99.90
31747;DHT22;18319;48.974;8.462;2022-10-17T15:27:44;19.60;99.90
31747;DHT22;18319;48.974;8.462;2022-10-17T15:30:19;19.50;99.90
31747;DHT22;18319;48.974;8.462;2022-10-17T15:32:46;19.50;99.90
31747;DHT22;18319;48.974;8.462;2022-10-17T15:35:14;19.50;99.90
31747;DHT22;18319;48.974;8.462;2022-10-17T15:37:41;19.30;99.90
31747;DHT22;18319;48.974;8.462;2022-10-17T15:40:13;19.30;99.90
31747;DHT22;18319;48.974;8.462;2022-10-17T15:42:41;19.20;99.90
31747;DHT22;18319;48.974;8.462;2022-10-17T15:45:09;19.20;99.90
31747;DHT22;18319;48.974;8.462;2022-10-17T15:47:38;19.20;99.90
31747;DHT22;18319;48.974;8.462;2022-10-17T15:50:06;19.10;99.90
31747;DHT22;18319;48.974;8.462;2022-10-17T15:52:36;19.10;99.90
31747;DHT22;18319;48.974;8.462;2022-10-17T15:55:04;19.00;99.90
31747;DHT22;18319;48.974;8.462;2022-10-17T15:57:33;19.00;99.90
31747;DHT22;18319;48.974;8.462;2022-10-17T16:00:04;18.90;99.90